createdAt,value
2022-10-11T00:00:05.503Z,59.46
2022-10-11T00:02:32.245Z,58.90
2022-10-11T00:04:59.041Z,59.13
2022-10-11T00:07:25.979Z,59.09
2022-10-11T00:09:52.951Z,58.72
2022-10-11T00:12:19.825Z,59.19
2022-10-11T00:14:46.614Z,59.69
2022-10-11T00:17:13.445Z,59.65
2022-10-11T00:19:40.262Z,58.99
2022-10-11T00:22:07.169Z,58.91
2022-10-11T00:24:34.173Z,59.07
2022-10-11T00:27:01.083Z,59.13
2022-10-11T00:29:27.944Z,58.41
2022-10-11T00:31:54.901Z,59.12
2022-10-11T00:34:21.723Z,59.39
2022-10-11T00:36:48.682Z,59.53
2022-10-11T00:39:15.922Z,59.53
2022-10-11T00:41:43.028Z,58.94
2022-10-11T00:44:19.317Z,58.44
2022-10-11T00:47:16.283Z,59.07
2022-10-11T00:49:48.603Z,59.15
2022-10-11T00:52:38.052Z,59.64
2022-10-11T00:55:12.561Z,59.53
2022-10-11T00:57:43.940Z,59.45
2022-10-11T01:00:13.798Z,59.24
2022-10-11T01:02:41.684Z,59.85
2022-10-11T01:05:29.155Z,59.93
2022-10-11T01:07:59.310Z,60.27
2022-10-11T01:10:27.417Z,60.46
2022-10-11T01:13:03.160Z,59.37
2022-10-11T01:15:45.732Z,59.87
2022-10-11T01:18:31.507Z,60.55
2022-10-11T01:21:22.282Z,59.62
2022-10-11T01:24:04.708Z,60.43
2022-10-11T01:26:52.332Z,60.92
2022-10-11T01:30:06.839Z,61.42
2022-10-11T01:32:46.760Z,60.60
2022-10-11T01:35:16.407Z,60.27
2022-10-11T01:37:57.322Z,60.06
2022-10-11T01:40:34.128Z,60.27
2022-10-11T01:43:03.160Z,60.31
2022-10-11T01:45:30.814Z,60.13
2022-10-11T01:48:08.387Z,59.72
2022-10-11T01:50:42.126Z,60.21
2022-10-11T01:53:53.309Z,59.37
2022-10-11T01:56:28.993Z,60.14
2022-10-11T01:59:14.704Z,59.74
2022-10-11T02:01:56.651Z,59.15
2022-10-11T02:04:42.234Z,59.06
2022-10-11T02:07:20.853Z,60.31
2022-10-11T02:09:58.411Z,59.83
2022-10-11T02:12:32.538Z,59.78
2022-10-11T02:15:03.602Z,59.65
2022-10-11T02:17:39.497Z,59.46
2022-10-11T02:20:13.083Z,59.27
2022-10-11T02:22:44.434Z,59.82
2022-10-11T02:25:18.817Z,60.34
2022-10-11T02:27:48.827Z,60.29
2022-10-11T02:30:16.789Z,60.64
2022-10-11T02:32:45.980Z,60.64
2022-10-11T02:35:13.704Z,60.47
2022-10-11T02:37:53.471Z,59.62
2022-10-11T02:40:26.245Z,60.41
2022-10-11T02:43:12.133Z,60.40
2022-10-11T02:45:47.187Z,59.28
2022-10-11T02:48:14.783Z,59.74
2022-10-11T02:50:42.822Z,60.68
2022-10-11T02:53:10.063Z,59.43
2022-10-11T02:55:37.133Z,60.36
2022-10-11T02:58:04.174Z,59.94
2022-10-11T03:00:31.209Z,60.64
2022-10-11T03:02:58.179Z,60.22
2022-10-11T03:05:25.085Z,59.83
2022-10-11T03:07:51.907Z,60.23
2022-10-11T03:10:18.937Z,60.15
2022-10-11T03:12:45.760Z,60.29
2022-10-11T03:15:12.601Z,59.88
2022-10-11T03:17:39.424Z,60.57
2022-10-11T03:20:06.978Z,60.75
2022-10-11T03:22:33.846Z,60.27
2022-10-11T03:25:04.142Z,61.20
2022-10-11T03:27:32.945Z,61.76
2022-10-11T03:29:59.928Z,61.35
2022-10-11T03:32:27.108Z,61.19
2022-10-11T03:34:53.980Z,61.23
2022-10-11T03:37:20.865Z,60.99
2022-10-11T03:39:47.789Z,61.29
2022-10-11T03:42:14.919Z,60.77
2022-10-11T03:44:42.466Z,60.94
2022-10-11T03:47:10.081Z,60.50
2022-10-11T03:49:42.599Z,60.92
2022-10-11T03:52:10.516Z,60.97
2022-10-11T03:54:37.341Z,61.23
2022-10-11T03:57:04.202Z,61.35
2022-10-11T03:59:31.095Z,61.81
2022-10-11T04:01:58.008Z,62.05
2022-10-11T04:04:24.930Z,61.39
2022-10-11T04:06:51.747Z,62.03
2022-10-11T04:09:18.619Z,62.05
2022-10-11T04:11:45.449Z,62.43
2022-10-11T04:14:12.269Z,63.54
2022-10-11T04:16:40.191Z,62.12
2022-10-11T04:19:07.285Z,61.72
2022-10-11T04:21:34.156Z,62.16
2022-10-11T04:24:00.988Z,61.76
2022-10-11T04:26:27.864Z,62.28
2022-10-11T04:28:54.919Z,61.57
2022-10-11T04:31:21.864Z,61.41
2022-10-11T04:33:48.663Z,61.24
2022-10-11T04:36:15.956Z,61.37
2022-10-11T04:38:42.900Z,61.71
2022-10-11T04:41:12.186Z,61.66
2022-10-11T04:43:39.443Z,61.50
2022-10-11T04:46:07.161Z,62.98
2022-10-11T04:48:34.584Z,62.06
2022-10-11T04:51:01.614Z,62.66
2022-10-11T04:53:28.926Z,62.51
2022-10-11T04:56:07.844Z,63.28
2022-10-11T04:58:35.710Z,60.87
2022-10-11T05:01:03.753Z,59.91
2022-10-11T05:03:30.669Z,58.93
2022-10-11T05:05:59.990Z,58.63
2022-10-11T05:08:29.082Z,57.21
2022-10-11T05:11:01.083Z,57.15
2022-10-11T05:13:29.532Z,57.83
2022-10-11T05:15:57.032Z,57.45
2022-10-11T05:18:24.345Z,57.16
2022-10-11T05:21:00.205Z,57.22
2022-10-11T05:23:28.404Z,56.46
2022-10-11T05:25:55.544Z,57.46
2022-10-11T05:28:22.551Z,56.65
2022-10-11T05:30:49.595Z,57.16
2022-10-11T05:33:16.704Z,57.43
2022-10-11T05:35:44.118Z,58.31
2022-10-11T05:38:11.086Z,59.81
2022-10-11T05:40:39.260Z,59.42
2022-10-11T05:43:06.902Z,60.06
2022-10-11T05:45:39.658Z,60.37
2022-10-11T05:48:06.643Z,60.07
2022-10-11T05:50:33.946Z,61.00
2022-10-11T05:53:00.880Z,61.05
2022-10-11T05:55:28.210Z,60.58
2022-10-11T05:57:58.001Z,61.33
2022-10-11T06:00:25.108Z,60.87
2022-10-11T06:02:51.994Z,61.76
2022-10-11T06:05:18.895Z,62.24
2022-10-11T06:07:45.773Z,61.65
2022-10-11T06:10:12.769Z,61.55
2022-10-11T06:12:39.612Z,62.05
2022-10-11T06:15:07.612Z,61.79
2022-10-11T06:17:34.856Z,61.74
2022-10-11T06:20:01.844Z,61.28
2022-10-11T06:22:28.649Z,60.24
2022-10-11T06:24:55.466Z,60.62
2022-10-11T06:27:22.406Z,60.17
2022-10-11T06:29:49.325Z,61.23
2022-10-11T06:32:16.423Z,60.28
2022-10-11T06:34:43.319Z,59.64
2022-10-11T06:37:10.140Z,60.45
2022-10-11T06:39:36.980Z,60.63
2022-10-11T06:42:03.974Z,60.01
2022-10-11T06:44:30.871Z,60.71
2022-10-11T06:46:57.764Z,60.52
2022-10-11T06:49:24.835Z,60.37
2022-10-11T06:51:51.766Z,60.43
2022-10-11T06:54:18.650Z,60.37
2022-10-11T06:56:45.906Z,60.54
2022-10-11T06:59:13.582Z,60.30
2022-10-11T07:01:42.089Z,59.32
2022-10-11T07:04:09.063Z,59.28
2022-10-11T07:06:41.316Z,59.75
2022-10-11T07:09:08.642Z,58.42
2022-10-11T07:11:35.763Z,58.76
2022-10-11T07:14:08.027Z,59.13
2022-10-11T07:16:36.493Z,58.82
2022-10-11T07:19:06.175Z,58.80
2022-10-11T07:21:34.343Z,59.58
2022-10-11T07:24:02.170Z,58.03
2022-10-11T07:26:33.758Z,58.42
2022-10-11T07:29:04.378Z,59.27
2022-10-11T07:31:31.303Z,57.93
2022-10-11T07:33:58.129Z,58.00
2022-10-11T07:36:25.710Z,57.69
2022-10-11T07:38:52.762Z,57.14
2022-10-11T07:41:20.221Z,58.24
2022-10-11T07:43:48.013Z,57.04
2022-10-11T07:46:15.496Z,55.58
2022-10-11T07:48:42.967Z,54.74
2022-10-11T07:51:11.838Z,54.63
2022-10-11T07:53:43.853Z,54.07
2022-10-11T07:56:12.643Z,53.02
2022-10-11T07:58:40.887Z,52.65
2022-10-11T08:01:09.286Z,51.15
2022-10-11T08:03:37.022Z,51.48
2022-10-11T08:06:06.991Z,52.40
2022-10-11T08:08:34.712Z,51.46
2022-10-11T08:11:01.598Z,50.15
2022-10-11T08:13:28.440Z,49.52
2022-10-11T08:15:55.479Z,48.96
2022-10-11T08:18:22.664Z,48.20
2022-10-11T08:20:49.532Z,48.09
2022-10-11T08:23:18.105Z,48.65
2022-10-11T08:25:47.271Z,49.08
2022-10-11T08:28:18.533Z,48.03
2022-10-11T08:30:50.299Z,49.65
2022-10-11T08:33:21.957Z,49.91
2022-10-11T08:35:50.539Z,49.59
2022-10-11T08:38:18.104Z,50.54
2022-10-11T08:40:47.963Z,50.98
2022-10-11T08:43:26.442Z,50.92
2022-10-11T08:45:57.965Z,52.30
2022-10-11T08:48:33.588Z,50.99
2022-10-11T08:51:02.839Z,50.10
2022-10-11T08:53:38.858Z,51.10
2022-10-11T08:56:07.122Z,47.49
2022-10-11T08:59:03.740Z,47.57
2022-10-11T09:01:31.953Z,45.96
2022-10-11T09:04:00.247Z,45.57
2022-10-11T09:06:32.752Z,46.39
2022-10-11T09:09:21.045Z,45.39
2022-10-11T09:12:02.764Z,46.76
2022-10-11T09:14:47.232Z,45.79
2022-10-11T09:17:38.780Z,45.10
2022-10-11T09:20:43.030Z,43.58
2022-10-11T09:23:28.200Z,43.87
2022-10-11T09:26:01.390Z,43.58
2022-10-11T09:29:01.348Z,43.34
2022-10-11T09:31:29.804Z,44.14
2022-10-11T09:34:06.114Z,44.95
2022-10-11T09:36:55.698Z,45.20
2022-10-11T09:39:25.868Z,45.94
2022-10-11T09:42:07.083Z,44.26
2022-10-11T09:44:40.266Z,45.59
2022-10-11T09:47:14.579Z,45.26
2022-10-11T09:49:46.638Z,44.46
2022-10-11T09:52:19.608Z,42.72
2022-10-11T09:54:49.691Z,41.76
2022-10-11T09:57:30.441Z,40.63
2022-10-11T10:00:20.016Z,40.07
2022-10-11T10:02:53.507Z,39.41
2022-10-11T10:05:32.241Z,40.85
2022-10-11T10:08:11.319Z,43.30
2022-10-11T10:10:43.114Z,42.37
2022-10-11T10:13:23.363Z,43.38
2022-10-11T10:15:56.782Z,42.56
2022-10-11T10:18:32.381Z,42.59
2022-10-11T10:21:00.449Z,42.58
2022-10-11T10:23:32.673Z,43.75
2022-10-11T10:26:13.706Z,44.27
2022-10-11T10:29:09.947Z,43.21
2022-10-11T10:32:12.931Z,44.87
2022-10-11T10:34:39.892Z,43.18
2022-10-11T10:37:21.818Z,42.66
2022-10-11T10:39:56.707Z,42.56
2022-10-11T10:42:23.554Z,44.00
2022-10-11T10:44:57.083Z,44.30
2022-10-11T10:47:50.084Z,43.55
2022-10-11T10:50:32.713Z,44.44
2022-10-11T10:53:09.682Z,43.68
2022-10-11T10:55:46.118Z,43.32
2022-10-11T10:58:36.341Z,44.59
2022-10-11T11:01:13.642Z,44.74
2022-10-11T11:03:45.004Z,44.61
2022-10-11T11:06:36.729Z,42.58
2022-10-11T11:09:30.424Z,44.02
2022-10-11T11:12:11.073Z,42.67
2022-10-11T11:15:08.902Z,42.48
2022-10-11T11:17:50.912Z,42.30
2022-10-11T11:20:32.850Z,42.66
2022-10-11T11:23:08.078Z,42.97
2022-10-11T11:25:34.877Z,42.91
2022-10-11T11:28:26.385Z,43.93
2022-10-11T11:30:56.154Z,43.34
2022-10-11T11:33:48.957Z,41.66
2022-10-11T11:36:36.086Z,41.34
2022-10-11T11:39:07.067Z,42.23
2022-10-11T11:42:01.347Z,43.37
2022-10-11T11:44:32.975Z,42.36
2022-10-11T11:47:05.828Z,42.38
2022-10-11T11:52:44.277Z,43.47
2022-10-11T11:55:14.098Z,42.86
2022-10-11T11:58:06.975Z,43.20
2022-10-11T12:01:03.017Z,43.62
2022-10-11T12:03:49.549Z,43.84
2022-10-11T12:06:30.292Z,43.58
2022-10-11T12:09:09.228Z,44.45
2022-10-11T12:11:43.557Z,43.53
2022-10-11T12:14:18.904Z,44.19
2022-10-11T12:17:07.342Z,44.13
2022-10-11T12:19:35.102Z,44.28
2022-10-11T12:22:27.756Z,43.90
2022-10-11T12:25:22.445Z,43.92
2022-10-11T12:28:01.405Z,43.80
2022-10-11T12:30:50.944Z,43.47
2022-10-11T12:33:21.943Z,43.53
2022-10-11T12:35:55.282Z,42.74
2022-10-11T12:38:31.255Z,42.85
2022-10-11T12:41:18.341Z,43.22
2022-10-11T12:43:48.016Z,43.31
2022-10-11T12:46:31.142Z,42.60
2022-10-11T12:49:16.543Z,42.02
2022-10-11T12:52:03.209Z,42.04
2022-10-11T12:54:58.882Z,42.77
2022-10-11T12:57:45.191Z,42.82
2022-10-11T13:00:21.219Z,42.47
2022-10-11T13:02:49.153Z,42.05
2022-10-11T13:05:36.017Z,42.84
2022-10-11T13:08:05.698Z,43.55
2022-10-11T13:10:42.607Z,43.48
2022-10-11T13:13:20.784Z,42.75
2022-10-11T13:15:48.177Z,43.80
2022-10-11T13:18:17.099Z,44.41
2022-10-11T13:20:44.411Z,43.61
2022-10-11T13:23:25.261Z,43.70
2022-10-11T13:25:53.088Z,43.45
2022-10-11T13:28:20.907Z,43.39
2022-10-11T13:30:53.121Z,42.93
2022-10-11T13:33:33.147Z,42.93
2022-10-11T13:36:02.181Z,44.55
2022-10-11T13:38:32.491Z,44.89
2022-10-11T13:41:03.207Z,45.67
2022-10-11T13:43:31.411Z,43.76
2022-10-11T13:46:00.374Z,44.30
2022-10-11T13:48:31.605Z,43.04
2022-10-11T13:51:06.247Z,43.02
2022-10-11T13:53:33.105Z,44.40
2022-10-11T13:56:04.100Z,45.38
2022-10-11T13:58:46.437Z,46.12
2022-10-11T14:01:26.991Z,45.84
2022-10-11T14:03:56.834Z,45.75
2022-10-11T14:06:25.127Z,46.99
2022-10-11T14:08:54.229Z,46.65
2022-10-11T14:11:38.761Z,47.10
2022-10-11T14:14:40.004Z,46.82
2022-10-11T14:17:20.072Z,46.67
2022-10-11T14:20:08.682Z,47.13
2022-10-11T14:22:37.892Z,47.74
2022-10-11T14:25:05.144Z,47.29
2022-10-11T14:27:32.166Z,48.29
2022-10-11T14:30:25.746Z,48.07
2022-10-11T14:32:48.229Z,47.84
2022-10-11T14:35:20.866Z,48.33
2022-10-11T14:37:48.161Z,47.78
2022-10-11T14:40:27.300Z,48.82
2022-10-11T14:42:55.074Z,48.82
2022-10-11T14:45:21.964Z,49.73
2022-10-11T14:47:49.818Z,49.56
2022-10-11T14:50:36.896Z,49.70
2022-10-11T14:53:05.972Z,49.58
2022-10-11T14:55:33.059Z,50.03
2022-10-11T14:57:59.923Z,49.92
2022-10-11T15:00:28.739Z,49.93
2022-10-11T15:02:56.128Z,49.93
2022-10-11T15:05:25.197Z,50.45
2022-10-11T15:07:54.015Z,51.08
2022-10-11T15:10:40.679Z,51.12
2022-10-11T15:13:08.571Z,50.85
2022-10-11T15:15:37.620Z,51.21
2022-10-11T15:18:06.634Z,51.58
2022-10-11T15:20:42.190Z,51.66
2022-10-11T15:23:10.160Z,51.83
2022-10-11T15:25:38.630Z,51.80
2022-10-11T15:28:06.508Z,51.98
2022-10-11T15:30:41.016Z,52.61
2022-10-11T15:33:09.181Z,52.46
2022-10-11T15:35:36.170Z,52.26
2022-10-11T15:38:03.589Z,52.34
2022-10-11T15:40:36.241Z,52.16
2022-10-11T15:43:04.052Z,52.48
2022-10-11T15:45:31.107Z,52.68
2022-10-11T15:47:58.301Z,52.49
2022-10-11T15:50:34.714Z,52.41
2022-10-11T15:53:04.334Z,52.51
2022-10-11T15:55:32.835Z,52.67
2022-10-11T15:57:59.768Z,52.57
2022-10-11T16:00:26.793Z,52.42
2022-10-11T16:02:54.530Z,52.49
2022-10-11T16:05:24.710Z,52.44
2022-10-11T16:07:52.917Z,53.03
2022-10-11T16:10:20.809Z,52.61
2022-10-11T16:12:47.758Z,53.14
2022-10-11T16:15:15.593Z,53.32
2022-10-11T16:17:42.592Z,53.39
2022-10-11T16:20:09.557Z,53.09
2022-10-11T16:22:36.793Z,52.97
2022-10-11T16:25:04.571Z,53.13
2022-10-11T16:27:31.918Z,53.25
2022-10-11T16:29:59.516Z,53.69
2022-10-11T16:32:27.508Z,53.07
2022-10-11T16:34:54.374Z,53.36
2022-10-11T16:37:21.357Z,53.63
2022-10-11T16:39:48.170Z,53.77
2022-10-11T16:42:15.092Z,53.65
2022-10-11T16:44:41.930Z,54.60
2022-10-11T16:47:08.748Z,54.08
2022-10-11T16:49:35.599Z,54.45
2022-10-11T16:52:04.010Z,54.00
2022-10-11T16:54:32.231Z,53.78
2022-10-11T16:56:59.805Z,53.95
2022-10-11T16:59:26.789Z,53.92
2022-10-11T17:01:53.694Z,54.97
2022-10-11T17:04:21.182Z,54.78
2022-10-11T17:06:48.090Z,54.65
2022-10-11T17:09:16.016Z,54.51
2022-10-11T17:11:43.698Z,55.38
2022-10-11T17:14:13.423Z,55.16
2022-10-11T17:16:40.291Z,54.94
2022-10-11T17:19:12.209Z,54.59
2022-10-11T17:21:39.092Z,55.40
2022-10-11T17:24:06.490Z,56.20
2022-10-11T17:26:34.043Z,55.83
2022-10-11T17:29:01.325Z,56.29
2022-10-11T17:31:30.109Z,55.95
2022-10-11T17:34:00.727Z,56.89
2022-10-11T17:36:36.293Z,56.17
2022-10-11T17:39:11.078Z,57.38
2022-10-11T17:41:38.302Z,56.78
2022-10-11T17:44:05.528Z,56.95
2022-10-11T17:46:32.933Z,56.89
2022-10-11T17:49:01.447Z,57.07
2022-10-11T17:51:28.421Z,57.16
2022-10-11T17:53:55.313Z,58.00
2022-10-11T17:56:28.828Z,57.49
2022-10-11T17:58:58.972Z,57.41
2022-10-11T18:01:28.627Z,57.31
2022-10-11T18:03:58.276Z,57.47
2022-10-11T18:06:28.988Z,57.69
2022-10-11T18:08:57.288Z,57.88
2022-10-11T18:11:24.525Z,57.51
2022-10-11T18:13:53.236Z,58.60
2022-10-11T18:16:22.516Z,57.64
2022-10-11T18:18:49.434Z,56.36
2022-10-11T18:21:18.491Z,58.12
2022-10-11T18:23:45.625Z,58.04
2022-10-11T18:26:15.440Z,58.47
2022-10-11T18:28:43.960Z,58.64
2022-10-11T18:31:14.630Z,58.98
2022-10-11T18:33:43.506Z,57.63
2022-10-11T18:36:13.455Z,58.85
2022-10-11T18:38:46.182Z,58.90
2022-10-11T18:41:16.149Z,59.07
2022-10-11T18:43:43.491Z,58.89
2022-10-11T18:46:14.680Z,59.62
2022-10-11T18:48:43.647Z,58.67
2022-10-11T18:51:16.601Z,59.85
2022-10-11T18:53:43.432Z,58.96
2022-10-11T18:56:12.157Z,58.98
2022-10-11T18:58:40.079Z,59.88
2022-10-11T19:01:17.634Z,59.01
2022-10-11T19:03:46.912Z,59.32
2022-10-11T19:06:17.837Z,60.73
2022-10-11T19:08:49.627Z,59.92
2022-10-11T19:11:17.543Z,59.84
2022-10-11T19:13:44.716Z,59.92
2022-10-11T19:16:13.911Z,60.62
2022-10-11T19:18:44.202Z,60.24
2022-10-11T19:21:13.427Z,59.88
2022-10-11T19:23:44.823Z,59.41
2022-10-11T19:26:17.891Z,59.15
2022-10-11T19:28:45.134Z,59.20
2022-10-11T19:31:16.328Z,58.96
2022-10-11T19:33:45.305Z,59.10
2022-10-11T19:36:16.779Z,59.07
2022-10-11T19:38:46.248Z,58.84
2022-10-11T19:41:14.566Z,58.97
2022-10-11T19:43:41.890Z,59.30
2022-10-11T19:46:12.631Z,58.99
2022-10-11T19:48:40.031Z,58.07
2022-10-11T19:51:12.837Z,58.57
2022-10-11T19:53:40.600Z,58.81
2022-10-11T19:56:13.188Z,58.59
2022-10-11T19:58:41.155Z,58.42
2022-10-11T20:01:12.056Z,58.52
2022-10-11T20:03:39.118Z,58.23
2022-10-11T20:06:08.004Z,58.59
2022-10-11T20:08:36.635Z,58.66
2022-10-11T20:11:09.013Z,58.27
2022-10-11T20:13:37.224Z,58.06
2022-10-11T20:16:10.156Z,58.51
2022-10-11T20:18:40.838Z,58.12
2022-10-11T20:21:19.530Z,58.42
2022-10-11T20:23:47.666Z,58.44
2022-10-11T20:26:17.859Z,58.85
2022-10-11T20:28:45.582Z,59.46
2022-10-11T20:31:18.354Z,59.72
2022-10-11T20:33:46.435Z,59.10
2022-10-11T20:36:16.680Z,58.74
2022-10-11T20:38:45.346Z,58.30
2022-10-11T20:41:20.726Z,59.40
2022-10-11T20:43:49.968Z,58.69
2022-10-11T20:46:19.886Z,58.72
2022-10-11T20:48:53.342Z,57.83
2022-10-11T20:51:23.387Z,57.59
2022-10-11T20:53:50.756Z,57.87
2022-10-11T20:56:19.608Z,57.50
2022-10-11T20:58:47.265Z,57.47
2022-10-11T21:01:17.262Z,57.52
2022-10-11T21:03:45.111Z,58.39
2022-10-11T21:06:12.719Z,58.54
2022-10-11T21:08:40.266Z,57.90
2022-10-11T21:11:07.982Z,58.34
2022-10-11T21:13:34.924Z,57.93
2022-10-11T21:16:12.168Z,58.35
2022-10-11T21:18:39.963Z,58.35
2022-10-11T21:21:12.641Z,58.21
2022-10-11T21:23:40.465Z,59.27
2022-10-11T21:26:10.481Z,58.43
2022-10-11T21:28:38.073Z,59.04
2022-10-11T21:31:10.045Z,59.02
2022-10-11T21:33:37.587Z,58.59
2022-10-11T21:36:05.919Z,58.85
2022-10-11T21:38:33.766Z,58.86
2022-10-11T21:41:10.136Z,59.42
2022-10-11T21:43:38.460Z,59.33
2022-10-11T21:46:09.798Z,59.50
2022-10-11T21:48:36.762Z,58.26
2022-10-11T21:51:03.800Z,58.46
2022-10-11T21:53:30.902Z,58.49
2022-10-11T21:56:01.299Z,59.15
2022-10-11T21:58:28.769Z,58.64
2022-10-11T22:00:55.591Z,59.16
2022-10-11T22:03:22.508Z,58.57
2022-10-11T22:05:49.600Z,59.58
2022-10-11T22:08:16.415Z,59.29
2022-10-11T22:10:44.266Z,59.22
2022-10-11T22:13:11.666Z,59.62
2022-10-11T22:15:39.627Z,59.13
2022-10-11T22:18:06.489Z,58.72
2022-10-11T22:20:33.982Z,58.53
2022-10-11T22:23:01.147Z,58.73
2022-10-11T22:25:28.289Z,58.60
2022-10-11T22:27:55.104Z,59.32
2022-10-11T22:30:22.310Z,58.75
2022-10-11T22:32:51.530Z,59.34
2022-10-11T22:35:19.066Z,59.10
2022-10-11T22:37:46.028Z,58.81
2022-10-11T22:40:12.888Z,58.20
2022-10-11T22:42:39.848Z,59.17
2022-10-11T22:45:07.079Z,59.42
2022-10-11T22:47:34.113Z,58.89
2022-10-11T22:50:01.204Z,59.36
2022-10-11T22:52:28.035Z,58.77
2022-10-11T22:54:54.836Z,59.17
2022-10-11T22:57:21.746Z,58.74
2022-10-11T22:59:48.549Z,57.69
2022-10-11T23:02:15.387Z,57.90
2022-10-11T23:04:42.281Z,58.45
2022-10-11T23:07:09.077Z,58.21
2022-10-11T23:09:35.864Z,58.09
2022-10-11T23:12:02.671Z,58.61
2022-10-11T23:14:29.580Z,58.82
2022-10-11T23:16:56.390Z,58.49
2022-10-11T23:19:23.212Z,58.56
2022-10-11T23:21:50.054Z,59.53
2022-10-11T23:24:16.933Z,59.64
2022-10-11T23:26:43.876Z,59.28
2022-10-11T23:29:10.799Z,58.54
2022-10-11T23:31:37.644Z,58.88
2022-10-11T23:34:04.522Z,59.32
2022-10-11T23:36:31.349Z,58.59
2022-10-11T23:38:58.964Z,58.87
2022-10-11T23:41:28.940Z,58.64
2022-10-11T23:43:56.242Z,59.32
2022-10-11T23:46:23.134Z,59.48
2022-10-11T23:48:50.011Z,59.96
2022-10-11T23:51:17.099Z,59.28
2022-10-11T23:53:43.879Z,59.66
2022-10-11T23:56:11.755Z,61.20
2022-10-11T23:58:38.988Z,60.57
